createdAt,value
2022-08-04T00:03:37.077Z,0.0
2022-08-04T00:07:44.845Z,0.0
2022-08-04T00:12:49.837Z,0.0
2022-08-04T00:17:56.300Z,0.0
2022-08-04T00:23:02.679Z,0.0
2022-08-04T00:28:09.129Z,0.0
2022-08-04T00:33:15.491Z,0.0
2022-08-04T00:38:45.903Z,0.0
2022-08-04T00:43:28.263Z,0.0
2022-08-04T00:48:54.679Z,0.0
2022-08-04T00:53:41.083Z,0.0
2022-08-04T00:58:47.504Z,0.0
2022-08-04T01:03:53.884Z,0.0
2022-08-04T01:09:00.257Z,0.0
2022-08-04T01:14:06.643Z,0.0
2022-08-04T01:19:13.024Z,0.0
2022-08-04T01:24:19.391Z,0.0
2022-08-04T01:29:26.287Z,0.0
2022-08-04T01:34:32.356Z,0.0
2022-08-04T01:39:58.875Z,0.0
2022-08-04T01:44:45.212Z,0.0
2022-08-04T01:49:51.603Z,0.0
2022-08-04T01:55:58.055Z,0.0
2022-08-04T02:00:28.379Z,0.0
2022-08-04T02:05:10.742Z,0.0
2022-08-04T02:10:37.178Z,0.0
2022-08-04T02:15:47.578Z,0.0
2022-08-04T02:20:29.918Z,0.0
2022-08-04T02:27:26.542Z,0.0
2022-08-04T02:32:48.132Z,0.0
2022-08-04T02:37:33.554Z,0.0
2022-08-04T02:42:49.957Z,0.0
2022-08-04T02:48:31.195Z,0.0
2022-08-04T02:53:46.835Z,0.0
2022-08-04T02:58:13.112Z,0.0
2022-08-04T03:03:15.483Z,0.0
2022-08-04T03:09:06.660Z,0.0
2022-08-04T03:13:18.933Z,0.0
2022-08-04T03:18:35.337Z,0.0
2022-08-04T03:24:19.715Z,4.0
2022-08-04T03:29:43.222Z,4.0
2022-08-04T03:34:29.575Z,8.0
2022-08-04T03:39:36.110Z,20.0
2022-08-04T03:45:17.404Z,36.0
2022-08-04T03:49:48.961Z,60.0
2022-08-04T03:55:15.379Z,96.0
2022-08-04T04:00:01.732Z,140.0
2022-08-04T04:04:58.108Z,212.0
2022-08-04T04:10:34.541Z,300.0
2022-08-04T04:15:20.907Z,408.0
2022-08-04T04:20:27.271Z,460.0
2022-08-04T04:25:33.651Z,528.0
2022-08-04T04:30:40.072Z,604.0
2022-08-04T04:35:50.445Z,728.0
2022-08-04T04:40:52.813Z,908.0
2022-08-04T04:45:59.199Z,1104.0
2022-08-04T04:51:29.618Z,1320.0
2022-08-04T04:56:01.975Z,1720.0
2022-08-04T05:01:17.360Z,2120.0
2022-08-04T05:06:24.737Z,2324.0
2022-08-04T05:11:31.124Z,2524.0
2022-08-04T05:16:27.589Z,2960.0
2022-08-04T05:21:33.986Z,3544.0
2022-08-04T05:27:18.430Z,3856.0
2022-08-04T05:31:46.745Z,4228.0
2022-08-04T05:37:47.242Z,4324.0
2022-08-04T05:42:58.620Z,3924.0
2022-08-04T05:48:01.000Z,4096.0
2022-08-04T05:53:07.360Z,4164.0
2022-08-04T05:59:25.958Z,4416.0
2022-08-04T06:03:20.304Z,4868.0
2022-08-04T06:08:26.682Z,5372.0
2022-08-04T06:13:49.202Z,6108.0
2022-08-04T06:19:59.981Z,6236.0
2022-08-04T06:23:53.789Z,6052.0
2022-08-04T06:28:52.269Z,6152.0
2022-08-04T06:33:58.654Z,6192.0
2022-08-04T06:39:25.105Z,6344.0
2022-08-04T06:44:31.443Z,7104.0
2022-08-04T06:49:17.881Z,7680.0
2022-08-04T06:54:24.366Z,7972.0
2022-08-04T06:59:20.830Z,7156.0
2022-08-04T07:05:05.845Z,7924.0
2022-08-04T07:09:43.609Z,9376.0
2022-08-04T07:14:49.987Z,7920.0
2022-08-04T07:20:00.372Z,9636.0
2022-08-04T07:26:13.527Z,12284.0
2022-08-04T07:31:33.182Z,13504.0
2022-08-04T07:36:29.211Z,13320.0
2022-08-04T07:41:35.952Z,12100.0
2022-08-04T07:46:42.415Z,13204.0
2022-08-04T07:51:44.799Z,16736.0
2022-08-04T07:56:51.196Z,17376.0
2022-08-04T08:01:57.573Z,18496.0
2022-08-04T08:07:03.989Z,17056.0
2022-08-04T08:12:36.712Z,17696.0
2022-08-04T08:17:16.841Z,23584.0
2022-08-04T08:22:23.217Z,23168.0
2022-08-04T08:27:29.597Z,18304.0
2022-08-04T08:32:35.975Z,27520.0
2022-08-04T08:39:14.690Z,29536.0
2022-08-04T08:42:48.745Z,31872.0
2022-08-04T08:48:39.216Z,32096.0
2022-08-04T08:58:49.083Z,37824.0
2022-08-04T09:03:56.456Z,42208.0
2022-08-04T09:09:02.961Z,42240.0
2022-08-04T09:14:09.438Z,40448.0
2022-08-04T09:19:22.690Z,40256.0
2022-08-04T09:24:35.778Z,40000.0
2022-08-04T09:29:27.686Z,45536.0
2022-08-04T09:34:25.171Z,44608.0
2022-08-04T09:40:01.818Z,45312.0
2022-08-04T09:46:00.093Z,50688.0
2022-08-04T09:49:54.350Z,53280.0
2022-08-04T09:55:04.729Z,50144.0
2022-08-04T10:00:40.483Z,54272.0
2022-08-04T10:05:13.511Z,53408.0
2022-08-04T10:10:19.855Z,56256.0
2022-08-04T10:15:26.270Z,57472.0
2022-08-04T10:20:36.559Z,62688.0
2022-08-04T10:26:06.052Z,66048.0
2022-08-04T10:30:45.502Z,21248.0
2022-08-04T10:35:51.899Z,22272.0
2022-08-04T10:40:58.278Z,19200.0
2022-08-04T10:46:24.703Z,18720.0
2022-08-04T10:51:11.074Z,24992.0
2022-08-04T10:56:17.461Z,46144.0
2022-08-04T11:02:00.164Z,64768.0
2022-08-04T11:06:30.254Z,59904.0
2022-08-04T11:12:00.583Z,59680.0
2022-08-04T11:17:17.120Z,59136.0
2022-08-04T11:22:24.582Z,59040.0
2022-08-04T11:27:31.373Z,41920.0
2022-08-04T11:37:48.234Z,34016.0
2022-08-04T11:42:50.636Z,25824.0
2022-08-04T11:47:57.009Z,27360.0
2022-08-04T11:58:12.807Z,17952.0
2022-08-04T12:03:16.284Z,11412.0
2022-08-04T12:08:22.649Z,9676.0
2022-08-04T12:13:29.074Z,6588.0
2022-08-04T12:18:55.463Z,6660.0
2022-08-04T12:23:41.914Z,6832.0
2022-08-04T12:29:16.221Z,5328.0
2022-08-04T12:34:18.825Z,5272.0
2022-08-04T12:39:25.281Z,6780.0
2022-08-04T12:44:07.535Z,10664.0
2022-08-04T12:49:03.896Z,14580.0
2022-08-04T12:54:19.303Z,23104.0
2022-08-04T12:59:26.666Z,35168.0
2022-08-04T13:04:36.711Z,11292.0
2022-08-04T13:09:42.072Z,6516.0
2022-08-04T13:14:49.449Z,3888.0
2022-08-04T13:20:29.899Z,3228.0
2022-08-04T13:26:42.685Z,3976.0
2022-08-04T13:30:43.735Z,3664.0
2022-08-04T13:36:24.196Z,4820.0
2022-08-04T13:41:31.588Z,5976.0
2022-08-04T13:46:28.716Z,6804.0
2022-08-04T13:51:57.924Z,9372.0
2022-08-04T13:56:40.777Z,14260.0
2022-08-04T14:01:57.630Z,17760.0
2022-08-04T14:10:33.089Z,15344.0
2022-08-04T14:16:02.828Z,21024.0
2022-08-04T14:21:10.912Z,13400.0
2022-08-04T14:25:43.212Z,11160.0
2022-08-04T14:30:59.748Z,10260.0
2022-08-04T14:36:26.265Z,9292.0
2022-08-04T14:42:24.811Z,8836.0
2022-08-04T14:46:08.961Z,7248.0
2022-08-04T14:51:26.107Z,7740.0
2022-08-04T14:56:46.646Z,6820.0
2022-08-04T15:01:38.288Z,6008.0
2022-08-04T15:06:44.540Z,5380.0
2022-08-04T15:11:50.948Z,6796.0
2022-08-04T15:17:01.340Z,5844.0
2022-08-04T15:22:07.704Z,5344.0
2022-08-04T15:27:10.069Z,5896.0
2022-08-04T15:32:16.469Z,6196.0
2022-08-04T15:37:22.986Z,6364.0
2022-08-04T15:42:29.345Z,6712.0
2022-08-04T15:47:25.705Z,7056.0
2022-08-04T15:52:31.894Z,7484.0
2022-08-04T15:57:52.498Z,6872.0
2022-08-04T16:02:54.981Z,6108.0
2022-08-04T16:08:01.470Z,6000.0
2022-08-04T16:13:07.896Z,5860.0
2022-08-04T16:18:04.230Z,5436.0
2022-08-04T16:23:09.591Z,6380.0
2022-08-04T16:28:16.977Z,6900.0
2022-08-04T16:33:43.823Z,6660.0
2022-08-04T16:38:40.409Z,5840.0
2022-08-04T16:43:46.878Z,5536.0
2022-08-04T16:48:57.282Z,5660.0
2022-08-04T16:54:04.696Z,5756.0
2022-08-04T16:59:06.025Z,5368.0
2022-08-04T17:04:12.415Z,4960.0
2022-08-04T17:09:19.013Z,4548.0
2022-08-04T17:14:45.250Z,4312.0
2022-08-04T17:19:31.635Z,4424.0
2022-08-04T17:24:38.054Z,4060.0
2022-08-04T17:29:45.214Z,3504.0
2022-08-04T17:34:50.895Z,2788.0
2022-08-04T17:39:57.342Z,2720.0
2022-08-04T17:45:25.409Z,3004.0
2022-08-04T17:50:30.055Z,2392.0
2022-08-04T17:55:36.459Z,2164.0
2022-08-04T18:00:51.263Z,1952.0
2022-08-04T18:06:02.160Z,1928.0
2022-08-04T18:10:46.318Z,1980.0
2022-08-04T18:16:54.415Z,2000.0
2022-08-04T18:20:50.202Z,1768.0
2022-08-04T18:25:55.278Z,1576.0
2022-08-04T18:30:55.240Z,1200.0
2022-08-04T18:36:34.364Z,876.0
2022-08-04T18:41:15.031Z,736.0
2022-08-04T18:46:21.439Z,516.0
2022-08-04T18:51:49.067Z,424.0
2022-08-04T18:56:34.298Z,296.0
2022-08-04T19:02:12.719Z,220.0
2022-08-04T19:06:47.070Z,176.0
2022-08-04T19:16:50.442Z,112.0
2022-08-04T19:22:08.232Z,72.0
2022-08-04T19:27:14.334Z,44.0
2022-08-04T19:32:20.825Z,24.0
2022-08-04T19:37:56.856Z,12.0
2022-08-04T19:43:07.430Z,8.0
2022-08-04T19:48:23.720Z,4.0
2022-08-04T19:53:37.457Z,0.0
2022-08-04T19:58:35.363Z,0.0
2022-08-04T20:13:56.523Z,0.0
2022-08-04T20:19:27.050Z,0.0
2022-08-04T20:24:37.620Z,0.0
2022-08-04T20:29:20.675Z,0.0
2022-08-04T20:34:49.846Z,0.0
2022-08-04T20:39:54.667Z,0.0
2022-08-04T20:49:45.383Z,0.0
2022-08-04T20:54:56.146Z,0.0
2022-08-04T21:00:00.136Z,0.0
2022-08-04T21:05:49.000Z,0.0
2022-08-04T21:13:03.590Z,0.0
2022-08-04T21:15:58.468Z,0.0
2022-08-04T21:20:48.441Z,0.0
2022-08-04T21:25:50.493Z,0.0
2022-08-04T21:30:52.388Z,0.0
2022-08-04T21:36:43.359Z,0.0
2022-08-04T21:40:39.634Z,0.0
2022-08-04T21:46:20.070Z,0.0
2022-08-04T21:51:59.118Z,0.0
2022-08-04T21:56:09.072Z,0.0
2022-08-04T22:01:12.725Z,0.0
2022-08-04T22:11:18.028Z,0.0
2022-08-04T22:16:24.519Z,0.0
2022-08-04T22:21:30.902Z,0.0
2022-08-04T22:26:37.389Z,0.0
2022-08-04T22:34:32.083Z,0.0
2022-08-04T22:37:36.035Z,0.0
2022-08-04T22:42:13.296Z,0.0
2022-08-04T22:47:20.572Z,0.0
2022-08-04T22:52:27.766Z,0.0
2022-08-04T22:58:50.947Z,0.0
2022-08-04T23:02:56.169Z,0.0
2022-08-04T23:07:52.528Z,0.0
2022-08-04T23:12:44.881Z,0.0
2022-08-04T23:17:43.747Z,0.0
2022-08-04T23:22:57.635Z,0.0
2022-08-04T23:28:04.178Z,0.0
2022-08-04T23:33:51.148Z,0.0
2022-08-04T23:38:31.093Z,0.0
2022-08-04T23:43:23.284Z,0.0
2022-08-04T23:48:21.012Z,0.0
2022-08-04T23:53:35.968Z,0.0
2022-08-04T23:58:42.369Z,0.0
